Flight Track Log - Related Links

Times and Time Zones

All times are in EDT time to prevent confusion due to time zone crossing. See the N609C flight status page for this flight to view local times or setup timezone preferences in your user account.

Time Position Orientation Groundspeed Altitude Reporting Facility
EDT Latitude Longitude Course Direction KTS MPH feet Rate Location/Type
Mon 08:34:00 PM 46.4294 -90.8358 154° Southeast 166 191 4,300  Level Minneapolis Center
Mon 08:35:02 PM 46.3908 -90.8069 153° Southeast 159 183 4,900 581 Climbing Minneapolis Center
Mon 08:36:04 PM 46.3508 -90.7772 153° Southeast 159 183 5,500 629 Climbing Minneapolis Center
Mon 08:37:06 PM 46.3058 -90.7511 158° South 161 185 6,200 581 Climbing Minneapolis Center
Mon 08:38:08 PM 46.2675 -90.7233 153° Southeast 163 188 6,700 435 Climbing Minneapolis Center
Mon 08:39:00 PM 46.2344 -90.7024 154° Southeast  Level Estimated
Mon 08:39:10 PM 46.2258 -90.6953 155° Southeast 162 186 7,100  Level Minneapolis Center
Mon 08:40:12 PM 46.1717 -90.6581 155° Southeast 169 194 6,900 -97 Descending Minneapolis Center
Mon 08:41:14 PM 46.1225 -90.6253 155° Southeast 181 208 6,900  Level Minneapolis Center
Mon 08:42:16 PM 46.0756 -90.5922 154° Southeast 182 209 6,900  Level Minneapolis Center
Mon 08:43:18 PM 46.0256 -90.5600 156° South 190 219 6,900  Level Minneapolis Center
Mon 08:44:20 PM 45.9778 -90.5272 155° Southeast 190 219 6,900  Level Minneapolis Center
Mon 08:45:22 PM 45.9300 -90.4944 154° Southeast 191 220 6,900  Level Minneapolis Center
Mon 08:46:24 PM 45.8731 -90.4542 154° Southeast 191 220 6,900  Level Minneapolis Center
Mon 08:47:26 PM 45.8261 -90.4233 155° Southeast 191 220 6,900  Level Minneapolis Center
Mon 08:48:28 PM 45.7786 -90.3922 155° Southeast 191 220 6,900  Level Minneapolis Center
Mon 08:49:30 PM 45.7339 -90.3622 155° Southeast 188 216 6,900  Level Minneapolis Center
Mon 08:50:33 PM 45.6875 -90.3300 154° Southeast 186 214 6,900  Level Minneapolis Center
Mon 08:51:35 PM 45.6328 -90.2944 156° South 184 212 6,900  Level Minneapolis Center
Mon 08:52:37 PM 45.5853 -90.2644 156° South 184 212 6,900  Level Minneapolis Center
Mon 08:53:39 PM 45.5383 -90.2319 154° Southeast 184 212 6,900  Level Minneapolis Center
Mon 08:54:41 PM 45.4917 -90.2003 155° Southeast 184 212 6,900  Level Minneapolis Center
Mon 08:55:43 PM 45.4450 -90.1694 155° Southeast 184 212 6,900  Level Minneapolis Center
Mon 08:56:45 PM 45.3994 -90.1381 154° Southeast 184 212 6,900  Level Minneapolis Center
Mon 08:57:47 PM 45.3436 -90.1033 156° South 184 212 6,900  Level Minneapolis Center
Mon 08:58:49 PM 45.2961 -90.0717 155° Southeast 184 212 6,900  Level Minneapolis Center
Mon 08:59:51 PM 45.2500 -90.0408 155° Southeast 184 212 6,900 48 Level Minneapolis Center
Mon 09:00:53 PM 45.2031 -90.0114 156° South 184 212 7,000 48 Climbing Minneapolis Center
Mon 09:01:56 PM 45.1514 -89.9756 154° Southeast 184 212 7,000  Level Minneapolis Center
Mon 09:03:22 PM 45.0819 -89.9306 155° Southeast 242 278 7,000  Level Minneapolis Center
Mon 09:04:25 PM 45.0358 -89.9017 156° South 178 205 7,000  Level Minneapolis Center
Mon 09:05:27 PM 44.9908 -89.8728 156° South 182 209 7,000  Level Minneapolis Center
Mon 09:06:29 PM 44.9419 -89.8403 155° Southeast 182 209 7,000  Level Minneapolis Center
Mon 09:07:31 PM 44.8933 -89.8089 155° Southeast 183 211 7,000  Level Minneapolis Center
Mon 09:08:33 PM 44.8458 -89.7781 155° Southeast 183 211 7,000  Level Minneapolis Center
Mon 09:09:35 PM 44.7975 -89.7478 156° South 182 209 7,000  Level Minneapolis Center
Mon 09:10:37 PM 44.7492 -89.7139 154° Southeast 183 211 7,000 -48 Level Minneapolis Center
Mon 09:11:39 PM 44.7000 -89.6844 157° South 183 211 6,900  Descending Minneapolis Center
Mon 09:12:41 PM 44.6558 -89.6553 155° Southeast 183 211 7,000 48 Climbing Minneapolis Center
Mon 09:13:43 PM 44.6061 -89.6236 156° South 184 212 7,000  Level Minneapolis Center
Mon 09:14:45 PM 44.5564 -89.5922 156° South 185 213 7,000  Level Minneapolis Center
Mon 09:15:47 PM 44.5081 -89.5603 155° Southeast 184 212 7,000 48 Level Minneapolis Center
Mon 09:16:49 PM 44.4597 -89.5433 166° South 183 211 7,100 -48 Climbing Minneapolis Center
Mon 09:17:51 PM 44.4119 -89.5025 149° Southeast 192 221 6,900 -97 Descending Minneapolis Center
Mon 09:18:53 PM 44.3672 -89.4703 153° Southeast 191 220 6,900 48 Level Minneapolis Center
Mon 09:19:55 PM 44.3183 -89.4392 156° South 189 217 7,000 48 Climbing Minneapolis Center
Mon 09:20:58 PM 44.2683 -89.4081 156° South 188 216 7,000  Level Minneapolis Center
Mon 09:22:00 PM 44.2206 -89.3769 155° Southeast 187 215 7,000  Level Minneapolis Center
Mon 09:23:02 PM 44.1708 -89.3456 156° South 186 214 7,000  Level Minneapolis Center
Mon 09:24:04 PM 44.1222 -89.3156 156° South 186 214 7,000  Level Minneapolis Center
Mon 09:25:06 PM 44.0736 -89.2850 156° South 185 213 7,000  Level Minneapolis Center
Mon 09:26:08 PM 44.0292 -89.2575 156° South 184 212 7,000 48 Level Minneapolis Center
Mon 09:27:10 PM 43.9814 -89.2261 155° Southeast 183 211 7,100 48 Climbing Minneapolis Center
Mon 09:28:12 PM 43.9333 -89.1953 155° Southeast 182 209 7,100  Level Minneapolis Center
Mon 09:29:14 PM 43.8850 -89.1653 156° South 183 211 7,100  Level Minneapolis Center
Mon 09:30:16 PM 43.8367 -89.1364 157° South 182 209 7,100 -97 Level Minneapolis Center
Mon 09:31:18 PM 43.7881 -89.1047 155° Southeast 183 211 6,900 -290 Descending Minneapolis Center
Mon 09:32:20 PM 43.7400 -89.0739 155° Southeast 188 216 6,500 -435 Descending Minneapolis Center
Mon 09:33:22 PM 43.6894 -89.0433 156° South 193 222 6,000 -435 Descending Minneapolis Center
Mon 09:34:24 PM 43.6394 -89.0119 156° South 194 223 5,600 -480 Descending Minneapolis Center
Mon 09:35:27 PM 43.5883 -88.9808 156° South 195 224 5,000 -480 Descending Chicago Center
Mon 09:36:29 PM 43.5367 -88.9492 156° South 199 229 4,600 -488 Descending Chicago Center
Mon 09:37:30 PM 43.4744 -88.9108 156° South 201 231 4,000 -293 Descending Chicago Center
Mon 09:38:32 PM 43.4233 -88.8789 156° South 202 232 4,000  Level Chicago Center
Mon 09:39:34 PM 43.3750 -88.8500 157° South 199 229 4,000 48 Level Chicago Center
Mon 09:40:36 PM 43.3247 -88.8178 155° Southeast 195 224 4,100 97 Climbing Chicago Center

Login

Don't have an account? Register now (free) for customized features, flight alerts, and more!